createdAt,value
2018-09-26T00:00:55.806Z,2.50
2018-09-26T00:03:26.983Z,2.23
2018-09-26T00:05:55.429Z,2.03
2018-09-26T00:08:23.874Z,2.37
2018-09-26T00:10:52.272Z,2.50
2018-09-26T00:13:20.666Z,2.30
2018-09-26T00:15:49.063Z,2.00
2018-09-26T00:18:17.489Z,1.90
2018-09-26T00:20:45.952Z,2.53
2018-09-26T00:23:14.503Z,2.10
2018-09-26T00:25:42.913Z,2.47
2018-09-26T00:28:11.333Z,2.20
2018-09-26T00:30:39.743Z,2.10
2018-09-26T00:33:08.188Z,2.17
2018-09-26T00:35:36.718Z,2.40
2018-09-26T00:38:05.172Z,2.30
2018-09-26T00:40:33.612Z,2.00
2018-09-26T00:43:02.023Z,2.20
2018-09-26T00:45:30.596Z,2.37
2018-09-26T00:47:59.019Z,2.30
2018-09-26T00:50:27.431Z,2.50
2018-09-26T00:52:55.801Z,2.30
2018-09-26T00:55:24.307Z,1.90
2018-09-26T00:57:52.720Z,2.17
2018-09-26T01:00:21.200Z,2.03
2018-09-26T01:02:49.626Z,2.10
2018-09-26T01:05:18.146Z,2.53
2018-09-26T01:07:46.554Z,2.63
2018-09-26T01:10:14.952Z,2.17
2018-09-26T01:12:43.597Z,2.20
2018-09-26T01:15:12.323Z,2.40
2018-09-26T01:17:40.843Z,2.93
2018-09-26T01:20:09.597Z,2.30
2018-09-26T01:22:38.125Z,2.40
2018-09-26T01:25:06.904Z,2.40
2018-09-26T01:27:35.747Z,2.57
2018-09-26T01:30:05.919Z,2.43
2018-09-26T01:32:34.523Z,2.60
2018-09-26T01:35:03.432Z,2.53
2018-09-26T01:37:31.954Z,2.43
2018-09-26T01:40:00.824Z,2.70
2018-09-26T01:42:29.797Z,2.40
2018-09-26T01:44:58.359Z,2.20
2018-09-26T01:47:26.799Z,2.57
2018-09-26T01:49:55.258Z,2.07
2018-09-26T01:52:23.680Z,2.07
2018-09-26T01:54:52.249Z,2.40
2018-09-26T01:57:20.974Z,2.70
2018-09-26T01:59:49.383Z,2.70
2018-09-26T02:02:17.877Z,2.37
2018-09-26T02:04:46.379Z,2.43
2018-09-26T02:07:14.823Z,1.97
2018-09-26T02:09:43.465Z,2.20
2018-09-26T02:12:12.149Z,2.10
2018-09-26T02:14:40.937Z,2.17
2018-09-26T02:17:09.454Z,2.07
2018-09-26T02:19:38.175Z,2.40
2018-09-26T02:22:06.898Z,2.00
2018-09-26T02:24:36.149Z,2.07
2018-09-26T02:27:04.852Z,2.23
2018-09-26T02:29:33.336Z,2.00
2018-09-26T02:32:01.878Z,2.17
2018-09-26T02:34:30.589Z,2.20
2018-09-26T02:36:59.113Z,1.97
2018-09-26T02:39:27.696Z,2.80
2018-09-26T02:41:56.296Z,2.50
2018-09-26T02:44:24.910Z,2.30
2018-09-26T02:46:53.529Z,2.27
2018-09-26T02:49:22.196Z,2.70
2018-09-26T02:51:50.915Z,2.30
2018-09-26T02:54:19.519Z,2.57
2018-09-26T02:56:48.161Z,2.20
2018-09-26T02:59:16.786Z,2.70
2018-09-26T03:01:45.470Z,2.37
2018-09-26T03:04:14.018Z,2.70
2018-09-26T03:06:42.692Z,2.50
2018-09-26T03:09:11.996Z,2.60
2018-09-26T03:11:40.817Z,2.57
2018-09-26T03:14:09.388Z,2.83
2018-09-26T03:16:37.944Z,3.00
2018-09-26T03:19:06.961Z,2.70
2018-09-26T03:21:35.423Z,3.43
2018-09-26T03:24:04.069Z,2.80
2018-09-26T03:26:32.619Z,2.83
2018-09-26T03:29:01.355Z,2.17
2018-09-26T03:31:30.131Z,2.70
2018-09-26T03:34:02.151Z,2.70
2018-09-26T03:36:31.365Z,2.63
2018-09-26T03:38:59.917Z,2.33
2018-09-26T03:41:28.328Z,2.43
2018-09-26T03:43:56.901Z,2.67
2018-09-26T03:46:25.523Z,2.73
2018-09-26T03:48:54.192Z,2.87
2018-09-26T03:51:22.896Z,3.13
2018-09-26T03:53:51.445Z,3.43
2018-09-26T03:56:20.036Z,3.57
2018-09-26T03:58:48.729Z,3.83
2018-09-26T04:01:17.448Z,3.50
2018-09-26T04:03:45.983Z,2.93
2018-09-26T04:06:14.469Z,2.50
2018-09-26T04:08:43.008Z,2.73
2018-09-26T04:11:11.664Z,2.90
2018-09-26T04:13:40.213Z,2.77
2018-09-26T04:16:08.674Z,2.80
2018-09-26T04:18:37.157Z,2.87
2018-09-26T04:21:05.790Z,2.63
2018-09-26T04:23:34.447Z,2.77
2018-09-26T04:26:03.061Z,2.57
2018-09-26T04:28:31.610Z,2.27
2018-09-26T04:31:00.411Z,2.93
2018-09-26T04:33:29.016Z,2.97
2018-09-26T04:35:57.906Z,2.67
2018-09-26T04:38:26.830Z,2.83
2018-09-26T04:40:55.229Z,2.70
2018-09-26T04:43:23.706Z,2.40
2018-09-26T04:45:52.257Z,2.90
2018-09-26T04:48:20.781Z,4.00
2018-09-26T04:50:49.347Z,4.17
2018-09-26T04:53:17.893Z,3.70
2018-09-26T04:55:46.466Z,3.47
2018-09-26T04:58:15.117Z,3.53
2018-09-26T05:00:43.572Z,3.30
2018-09-26T05:03:12.174Z,3.73
2018-09-26T05:05:40.826Z,3.20
2018-09-26T05:08:09.541Z,3.90
2018-09-26T05:10:38.102Z,4.70
2018-09-26T05:13:06.999Z,3.70
2018-09-26T05:15:35.664Z,4.10
2018-09-26T05:18:04.175Z,4.10
2018-09-26T05:20:32.900Z,4.30
2018-09-26T05:23:01.617Z,4.23
2018-09-26T05:25:30.191Z,3.73
2018-09-26T05:27:58.856Z,3.90
2018-09-26T05:30:27.599Z,3.63
2018-09-26T05:32:56.007Z,3.40
2018-09-26T05:35:24.760Z,3.70
2018-09-26T05:37:53.574Z,4.27
2018-09-26T05:40:22.255Z,3.90
2018-09-26T05:42:51.137Z,3.40
2018-09-26T05:45:19.600Z,3.37
2018-09-26T05:47:48.315Z,3.70
2018-09-26T05:50:20.775Z,3.73
2018-09-26T05:52:49.394Z,3.63
2018-09-26T05:55:17.908Z,3.47
2018-09-26T05:57:46.366Z,3.47
2018-09-26T06:00:14.891Z,3.50
2018-09-26T06:02:43.624Z,3.60
2018-09-26T06:05:12.194Z,3.27
2018-09-26T06:07:41.120Z,3.40
2018-09-26T06:10:09.984Z,3.20
2018-09-26T06:12:38.788Z,3.17
2018-09-26T06:15:07.591Z,3.53
2018-09-26T06:17:36.269Z,3.57
2018-09-26T06:20:04.935Z,4.80
2018-09-26T06:22:33.580Z,7.43
2018-09-26T06:25:02.224Z,8.67
2018-09-26T06:27:30.762Z,6.70
2018-09-26T06:29:59.280Z,3.87
2018-09-26T06:32:27.793Z,3.63
2018-09-26T06:34:56.581Z,3.37
2018-09-26T06:37:25.160Z,3.63
2018-09-26T06:40:03.899Z,3.40
2018-09-26T06:42:32.999Z,3.10
2018-09-26T06:45:01.873Z,3.83
2018-09-26T06:47:30.704Z,4.53
2018-09-26T06:50:00.443Z,3.77
2018-09-26T06:52:29.066Z,3.80
2018-09-26T06:54:57.875Z,3.30
2018-09-26T06:57:26.420Z,3.57
2018-09-26T06:59:55.062Z,3.43
2018-09-26T07:02:23.659Z,3.60
2018-09-26T07:04:52.298Z,2.73
2018-09-26T07:07:20.777Z,3.57
2018-09-26T07:09:49.331Z,3.80
2018-09-26T07:12:17.957Z,3.27
2018-09-26T07:14:46.418Z,2.90
2018-09-26T07:17:14.944Z,3.10
2018-09-26T07:19:43.525Z,2.93
2018-09-26T07:22:12.324Z,2.90
2018-09-26T07:24:40.972Z,2.60
2018-09-26T07:27:09.614Z,2.40
2018-09-26T07:29:38.420Z,2.53
2018-09-26T07:32:07.138Z,2.37
2018-09-26T07:34:37.638Z,2.77
2018-09-26T07:37:06.863Z,2.10
2018-09-26T07:39:35.863Z,2.47
2018-09-26T07:42:04.506Z,2.30
2018-09-26T07:44:33.085Z,2.43
2018-09-26T07:47:01.774Z,2.60
2018-09-26T07:49:30.460Z,2.47
2018-09-26T07:51:58.979Z,2.42
2018-09-26T07:54:27.797Z,2.02
2018-09-26T07:56:56.375Z,2.45
2018-09-26T07:59:24.909Z,2.47
2018-09-26T08:01:53.478Z,2.47
2018-09-26T08:04:22.117Z,2.47
2018-09-26T08:06:50.832Z,2.60
2018-09-26T08:09:21.208Z,3.00
2018-09-26T08:11:49.836Z,2.70
2018-09-26T08:14:18.512Z,2.65
2018-09-26T08:16:46.906Z,2.80
2018-09-26T08:19:21.366Z,2.85
2018-09-26T08:21:50.069Z,2.45
2018-09-26T08:24:18.770Z,2.80
2018-09-26T08:26:47.574Z,3.30
2018-09-26T08:29:16.284Z,2.50
2018-09-26T08:31:44.764Z,2.40
2018-09-26T08:34:13.332Z,2.62
2018-09-26T08:36:42.060Z,2.42
2018-09-26T08:39:12.116Z,2.45
2018-09-26T08:41:40.695Z,2.45
2018-09-26T08:44:09.800Z,2.42
2018-09-26T08:46:38.286Z,1.95
2018-09-26T08:49:06.976Z,2.15
2018-09-26T08:51:35.884Z,2.25
2018-09-26T08:54:04.419Z,1.67
2018-09-26T08:56:33.180Z,2.20
2018-09-26T08:59:02.378Z,1.95
2018-09-26T09:01:36.231Z,1.92
2018-09-26T09:04:05.097Z,2.20
2018-09-26T09:06:33.800Z,1.90
2018-09-26T09:09:03.721Z,2.15
2018-09-26T09:11:33.837Z,2.50
2018-09-26T09:14:02.797Z,2.40
2018-09-26T09:16:31.364Z,2.37
2018-09-26T09:19:00.027Z,2.00
2018-09-26T09:21:28.716Z,1.95
2018-09-26T09:23:57.360Z,2.17
2018-09-26T09:26:26.862Z,2.00
2018-09-26T09:28:55.880Z,2.20
2018-09-26T09:31:24.696Z,2.20
2018-09-26T09:33:53.641Z,2.00
2018-09-26T09:36:22.393Z,2.10
2018-09-26T09:38:50.869Z,1.80
2018-09-26T09:41:21.333Z,1.87
2018-09-26T09:43:50.482Z,2.20
2018-09-26T09:46:19.161Z,2.10
2018-09-26T09:48:47.976Z,2.10
2018-09-26T09:51:17.001Z,2.10
2018-09-26T09:53:45.619Z,2.20
2018-09-26T09:56:14.452Z,2.37
2018-09-26T09:58:43.095Z,2.30
2018-09-26T10:01:16.918Z,2.10
2018-09-26T10:03:45.452Z,1.90
2018-09-26T10:06:13.978Z,2.07
2018-09-26T10:08:42.472Z,2.60
2018-09-26T10:11:10.854Z,2.10
2018-09-26T10:13:39.369Z,2.50
2018-09-26T10:16:07.959Z,2.20
2018-09-26T10:18:36.405Z,2.20
2018-09-26T10:21:04.906Z,2.20
2018-09-26T10:23:33.628Z,2.20
2018-09-26T10:26:02.137Z,2.10
2018-09-26T10:28:30.910Z,2.20
2018-09-26T10:30:59.528Z,2.30
2018-09-26T10:33:28.128Z,2.03
2018-09-26T10:35:56.973Z,2.33
2018-09-26T10:38:25.711Z,2.63
2018-09-26T10:40:56.440Z,2.63
2018-09-26T10:43:25.123Z,2.13
2018-09-26T10:45:54.589Z,2.13
2018-09-26T10:48:23.385Z,2.17
2018-09-26T10:50:52.115Z,2.50
2018-09-26T10:53:22.251Z,2.30
2018-09-26T10:55:51.622Z,2.30
2018-09-26T10:58:20.331Z,2.50
2018-09-26T11:00:52.581Z,2.10
2018-09-26T11:03:21.033Z,2.43
2018-09-26T11:05:49.652Z,2.53
2018-09-26T11:08:18.224Z,2.10
2018-09-26T11:10:46.736Z,2.60
2018-09-26T11:13:15.505Z,2.37
2018-09-26T11:15:43.996Z,2.40
2018-09-26T11:18:13.075Z,2.33
2018-09-26T11:20:41.606Z,2.70
2018-09-26T11:23:10.534Z,2.00
2018-09-26T11:25:39.139Z,2.23
2018-09-26T11:28:07.644Z,2.13
2018-09-26T11:30:42.761Z,2.03
2018-09-26T11:33:11.991Z,2.50
2018-09-26T11:35:40.669Z,2.20
2018-09-26T11:38:09.263Z,2.07
2018-09-26T11:40:37.738Z,2.30
2018-09-26T11:43:06.639Z,2.07
2018-09-26T11:45:35.334Z,2.10
2018-09-26T11:48:03.872Z,1.87
2018-09-26T11:50:32.380Z,1.67
2018-09-26T11:53:01.557Z,1.57
2018-09-26T11:55:30.131Z,1.70
2018-09-26T11:57:58.713Z,2.30
2018-09-26T12:00:27.520Z,1.62
2018-09-26T12:02:56.213Z,1.55
2018-09-26T12:05:24.848Z,1.70
2018-09-26T12:07:53.335Z,1.87
2018-09-26T12:10:21.890Z,1.55
2018-09-26T12:12:50.495Z,1.70
2018-09-26T12:15:19.484Z,1.40
2018-09-26T12:17:48.222Z,1.80
2018-09-26T12:20:16.707Z,1.55
2018-09-26T12:22:45.403Z,1.90
2018-09-26T12:25:14.175Z,1.50
2018-09-26T12:27:42.786Z,1.60
2018-09-26T12:30:11.380Z,1.62
2018-09-26T12:32:39.986Z,1.62
2018-09-26T12:35:08.776Z,1.55
2018-09-26T12:37:37.425Z,1.70
2018-09-26T12:40:06.405Z,1.60
2018-09-26T12:42:35.184Z,1.55
2018-09-26T12:45:04.034Z,1.62
2018-09-26T12:47:32.559Z,1.70
2018-09-26T12:50:01.522Z,1.50
2018-09-26T12:52:30.053Z,1.77
2018-09-26T12:54:58.894Z,1.60
2018-09-26T12:57:27.786Z,1.53
2018-09-26T12:59:56.573Z,2.02
2018-09-26T13:02:25.326Z,1.80
2018-09-26T13:04:53.677Z,1.50
2018-09-26T13:07:22.122Z,1.60
2018-09-26T13:09:50.623Z,1.60
2018-09-26T13:12:19.179Z,1.80
2018-09-26T13:14:47.830Z,1.67
2018-09-26T13:17:16.291Z,2.20
2018-09-26T13:19:45.021Z,1.80
2018-09-26T13:22:13.825Z,1.90
2018-09-26T13:24:42.268Z,1.47
2018-09-26T13:27:10.797Z,1.60
2018-09-26T13:29:39.318Z,1.97
2018-09-26T13:32:07.821Z,2.10
2018-09-26T13:34:36.298Z,1.90
2018-09-26T13:37:04.789Z,1.67
2018-09-26T13:39:33.281Z,1.83
2018-09-26T13:42:01.694Z,2.00
2018-09-26T13:44:31.651Z,1.90
2018-09-26T13:47:00.300Z,1.90
2018-09-26T13:49:28.888Z,1.80
2018-09-26T13:51:57.670Z,2.27
2018-09-26T13:54:26.235Z,2.23
2018-09-26T13:56:55.213Z,2.10
2018-09-26T13:59:23.660Z,1.70
2018-09-26T14:01:52.299Z,1.77
2018-09-26T14:04:20.982Z,2.03
2018-09-26T14:06:49.508Z,1.60
2018-09-26T14:09:18.010Z,1.80
2018-09-26T14:11:46.609Z,1.93
2018-09-26T14:14:15.418Z,1.97
2018-09-26T14:16:43.982Z,1.73
2018-09-26T14:19:12.700Z,1.60
2018-09-26T14:21:41.491Z,1.77
2018-09-26T14:24:10.161Z,1.53
2018-09-26T14:26:39.060Z,1.70
2018-09-26T14:29:07.973Z,1.60
2018-09-26T14:31:37.036Z,1.80
2018-09-26T14:34:06.545Z,1.80
2018-09-26T14:36:35.658Z,1.73
2018-09-26T14:39:05.179Z,2.07
2018-09-26T14:41:33.719Z,1.80
2018-09-26T14:44:02.810Z,1.67
2018-09-26T14:46:31.787Z,1.90
2018-09-26T14:49:01.291Z,2.23
2018-09-26T14:51:30.229Z,2.00
2018-09-26T14:53:59.067Z,1.80
2018-09-26T14:56:36.871Z,2.07
2018-09-26T14:59:06.604Z,1.70
2018-09-26T15:01:36.924Z,1.63
2018-09-26T15:04:06.062Z,1.80
2018-09-26T15:06:35.784Z,1.93
2018-09-26T15:09:05.720Z,1.80
2018-09-26T15:11:37.401Z,1.70
2018-09-26T15:14:06.582Z,1.53
2018-09-26T15:16:35.560Z,1.43
2018-09-26T15:19:04.523Z,1.63
2018-09-26T15:21:33.383Z,1.67
2018-09-26T15:24:02.257Z,1.63
2018-09-26T15:26:31.371Z,1.63
2018-09-26T15:29:00.577Z,1.70
2018-09-26T15:31:40.378Z,1.50
2018-09-26T15:34:09.590Z,1.60
2018-09-26T15:36:38.458Z,1.50
2018-09-26T15:39:10.227Z,1.50
2018-09-26T15:41:39.632Z,1.60
2018-09-26T15:44:08.830Z,1.40
2018-09-26T15:46:37.806Z,1.60
2018-09-26T15:49:07.040Z,1.30
2018-09-26T15:51:36.113Z,1.63
2018-09-26T15:54:05.071Z,1.70
2018-09-26T15:56:34.674Z,1.80
2018-09-26T15:59:03.648Z,1.77
2018-09-26T16:01:32.661Z,2.90
2018-09-26T16:04:17.843Z,5.63
2018-09-26T16:06:46.749Z,5.97
2018-09-26T16:09:15.320Z,5.70
2018-09-26T16:11:44.104Z,2.30
2018-09-26T16:14:14.013Z,1.73
2018-09-26T16:17:02.653Z,1.63
2018-09-26T16:19:31.582Z,1.90
2018-09-26T16:22:00.186Z,1.90
2018-09-26T16:24:28.932Z,1.80
2018-09-26T16:26:57.820Z,1.53
2018-09-26T16:29:27.369Z,1.50
2018-09-26T16:31:56.101Z,1.40
2018-09-26T16:34:26.234Z,1.60
2018-09-26T16:36:55.165Z,1.30
2018-09-26T16:39:29.814Z,1.50
2018-09-26T16:41:58.754Z,1.63
2018-09-26T16:44:27.455Z,1.60
2018-09-26T16:46:55.929Z,1.50
2018-09-26T16:49:24.426Z,1.40
2018-09-26T16:51:52.997Z,1.50
2018-09-26T16:54:21.617Z,1.60
2018-09-26T16:56:50.151Z,1.20
2018-09-26T16:59:18.688Z,1.57
2018-09-26T17:01:47.278Z,1.87
2018-09-26T17:04:15.865Z,1.90
2018-09-26T17:06:44.666Z,2.17
2018-09-26T17:09:13.460Z,1.87
2018-09-26T17:11:42.236Z,1.63
2018-09-26T17:14:11.599Z,2.10
2018-09-26T17:16:40.164Z,3.47
2018-09-26T17:19:09.114Z,3.33
2018-09-26T17:21:37.960Z,2.90
2018-09-26T17:24:06.633Z,3.00
2018-09-26T17:26:35.288Z,4.07
2018-09-26T17:29:03.983Z,4.03
2018-09-26T17:31:32.867Z,3.73
2018-09-26T17:34:01.669Z,4.33
2018-09-26T17:36:30.428Z,3.67
2018-09-26T17:38:59.154Z,3.10
2018-09-26T17:41:27.798Z,2.53
2018-09-26T17:43:56.572Z,2.37
2018-09-26T17:46:25.472Z,2.73
2018-09-26T17:48:54.648Z,2.33
2018-09-26T17:51:23.313Z,2.43
2018-09-26T17:53:52.363Z,2.93
2018-09-26T17:56:20.943Z,3.20
2018-09-26T17:58:50.830Z,3.70
2018-09-26T18:01:21.204Z,3.90
2018-09-26T18:03:52.674Z,4.17
2018-09-26T18:06:22.534Z,3.73
2018-09-26T18:08:53.191Z,3.33
2018-09-26T18:11:24.142Z,3.23
2018-09-26T18:13:59.300Z,3.93
2018-09-26T18:16:29.342Z,3.80
2018-09-26T18:18:59.193Z,4.20
2018-09-26T18:21:29.698Z,3.33
2018-09-26T18:23:59.788Z,3.23
2018-09-26T18:26:28.641Z,3.13
2018-09-26T18:28:57.500Z,3.10
2018-09-26T18:31:26.017Z,2.90
2018-09-26T18:33:54.942Z,3.00
2018-09-26T18:36:23.545Z,2.80
2018-09-26T18:38:52.210Z,3.47
2018-09-26T18:41:20.802Z,3.50
2018-09-26T18:43:49.329Z,4.40
2018-09-26T18:46:18.134Z,4.10
2018-09-26T18:48:46.866Z,4.00
2018-09-26T18:51:15.649Z,3.90
2018-09-26T18:53:44.269Z,4.53
2018-09-26T18:56:13.061Z,4.57
2018-09-26T18:58:41.777Z,4.20
2018-09-26T19:01:10.447Z,3.87
2018-09-26T19:03:39.695Z,3.57
2018-09-26T19:06:08.216Z,3.87
2018-09-26T19:08:36.789Z,3.97
2018-09-26T19:11:05.663Z,3.80
2018-09-26T19:13:34.416Z,3.83
2018-09-26T19:16:03.078Z,4.00
2018-09-26T19:18:31.731Z,3.90
2018-09-26T19:21:00.361Z,3.90
2018-09-26T19:23:28.997Z,4.07
2018-09-26T19:25:57.562Z,4.03
2018-09-26T19:28:26.428Z,4.60
2018-09-26T19:30:55.673Z,5.90
2018-09-26T19:33:24.280Z,10.13
2018-09-26T19:35:52.926Z,9.17
2018-09-26T19:38:21.604Z,7.33
2018-09-26T19:40:50.242Z,7.97
2018-09-26T19:43:19.114Z,6.70
2018-09-26T19:45:47.793Z,6.10
2018-09-26T19:48:16.504Z,7.30
2018-09-26T19:50:45.301Z,5.70
2018-09-26T19:53:13.872Z,4.70
2018-09-26T19:55:42.581Z,4.40
2018-09-26T19:58:11.067Z,4.33
2018-09-26T20:00:39.804Z,5.63
2018-09-26T20:03:08.681Z,4.80
2018-09-26T20:05:37.620Z,3.90
2018-09-26T20:08:06.559Z,4.07
2018-09-26T20:10:35.086Z,3.90
2018-09-26T20:13:03.726Z,4.20
2018-09-26T20:15:32.373Z,4.07
2018-09-26T20:18:01.463Z,5.17
2018-09-26T20:20:30.287Z,5.10
2018-09-26T20:22:59.036Z,4.30
2018-09-26T20:25:27.546Z,4.20
2018-09-26T20:27:56.236Z,4.60
2018-09-26T20:30:24.767Z,3.73
2018-09-26T20:32:53.437Z,3.83
2018-09-26T20:35:22.368Z,3.53
2018-09-26T20:37:51.009Z,4.03
2018-09-26T20:40:19.470Z,3.73
2018-09-26T20:42:48.122Z,3.87
2018-09-26T20:45:16.762Z,4.23
2018-09-26T20:47:45.462Z,4.97
2018-09-26T20:50:14.157Z,4.60
2018-09-26T20:52:42.973Z,4.03
2018-09-26T20:55:11.535Z,4.23
2018-09-26T20:57:40.213Z,3.40
2018-09-26T21:00:08.863Z,3.57
2018-09-26T21:02:37.355Z,3.80
2018-09-26T21:05:06.665Z,3.93
2018-09-26T21:07:35.135Z,3.60
2018-09-26T21:10:03.658Z,5.03
2018-09-26T21:12:32.222Z,5.90
2018-09-26T21:15:00.725Z,5.63
2018-09-26T21:17:29.241Z,5.67
2018-09-26T21:19:57.708Z,5.90
2018-09-26T21:22:26.108Z,5.60
2018-09-26T21:24:54.584Z,5.53
2018-09-26T21:27:23.438Z,4.50
2018-09-26T21:29:51.885Z,4.47
2018-09-26T21:32:20.382Z,3.73
2018-09-26T21:34:48.924Z,4.00
2018-09-26T21:37:17.475Z,4.67
2018-09-26T21:39:45.956Z,4.93
2018-09-26T21:42:14.570Z,5.30
2018-09-26T21:44:43.389Z,5.20
2018-09-26T21:47:12.214Z,4.77
2018-09-26T21:49:40.712Z,4.83
2018-09-26T21:52:09.176Z,4.70
2018-09-26T21:54:38.005Z,4.73
2018-09-26T21:57:07.011Z,4.50
2018-09-26T21:59:35.587Z,5.10
2018-09-26T22:02:04.142Z,5.13
2018-09-26T22:04:32.678Z,5.17
2018-09-26T22:07:01.175Z,4.83
2018-09-26T22:09:29.632Z,5.30
2018-09-26T22:11:58.354Z,4.33
2018-09-26T22:14:26.960Z,4.40
2018-09-26T22:16:55.662Z,4.27
2018-09-26T22:19:24.249Z,4.00
2018-09-26T22:21:52.688Z,4.30
2018-09-26T22:24:21.189Z,3.53
2018-09-26T22:26:49.827Z,4.00
2018-09-26T22:29:18.422Z,4.37
2018-09-26T22:31:46.879Z,4.23
2018-09-26T22:34:15.474Z,4.30
2018-09-26T22:36:44.049Z,4.37
2018-09-26T22:39:12.515Z,4.67
2018-09-26T22:41:41.197Z,4.10
2018-09-26T22:44:09.954Z,4.00
2018-09-26T22:46:38.506Z,4.20
2018-09-26T22:49:07.005Z,4.03
2018-09-26T22:51:35.435Z,4.57
2018-09-26T22:54:04.130Z,4.63
2018-09-26T22:56:32.773Z,4.27
2018-09-26T22:59:01.429Z,3.90
2018-09-26T23:01:30.574Z,4.60
2018-09-26T23:03:59.315Z,4.07
2018-09-26T23:06:27.941Z,4.07
2018-09-26T23:08:56.444Z,4.47
2018-09-26T23:11:25.211Z,4.73
2018-09-26T23:13:54.032Z,4.60
2018-09-26T23:16:22.734Z,4.20
2018-09-26T23:18:51.215Z,4.20
2018-09-26T23:21:19.725Z,4.10
2018-09-26T23:23:48.427Z,4.20
2018-09-26T23:26:17.203Z,4.47
2018-09-26T23:28:45.841Z,4.40
2018-09-26T23:31:14.808Z,4.47
2018-09-26T23:33:43.613Z,4.63
2018-09-26T23:36:12.185Z,4.37
2018-09-26T23:38:41.114Z,4.20
2018-09-26T23:41:09.906Z,4.50
2018-09-26T23:43:38.531Z,4.13
2018-09-26T23:46:07.234Z,4.10
2018-09-26T23:48:35.856Z,4.20
2018-09-26T23:51:04.630Z,4.50
2018-09-26T23:53:33.535Z,4.33
2018-09-26T23:56:02.089Z,4.40
2018-09-26T23:58:30.888Z,4.20
